Map

Track Data

SID SEASON NUMBER BASIN SUBBASIN NAME ISO_TIME NATURE LAT LON WMO_WIND WMO_PRES WMO_AGENCY TRACK_TYPE DIST2LAND LANDFALL IFLAG USA_AGENCY USA_ATCF_ID USA_LAT USA_LON USA_RECORD USA_STATUS USA_WIND USA_PRES USA_SSHS USA_R34_NE USA_R34_SE USA_R34_SW USA_R34_NW USA_R50_NE USA_R50_SE USA_R50_SW USA_R50_NW USA_R64_NE USA_R64_SE USA_R64_SW USA_R64_NW USA_POCI USA_ROCI USA_RMW USA_EYE TOKYO_LAT TOKYO_LON TOKYO_GRADE TOKYO_WIND TOKYO_PRES TOKYO_R50_DIR TOKYO_R50_LONG TOKYO_R50_SHORT TOKYO_R30_DIR TOKYO_R30_LONG TOKYO_R30_SHORT TOKYO_LAND CMA_LAT CMA_LON CMA_CAT CMA_WIND CMA_PRES HKO_LAT HKO_LON HKO_CAT HKO_WIND HKO_PRES NEWDELHI_LAT NEWDELHI_LON NEWDELHI_GRADE NEWDELHI_WIND NEWDELHI_PRES NEWDELHI_CI NEWDELHI_DP NEWDELHI_POCI REUNION_LAT REUNION_LON REUNION_TYPE REUNION_WIND REUNION_PRES REUNION_TNUM REUNION_CI REUNION_RMW REUNION_R34_NE REUNION_R34_SE REUNION_R34_SW REUNION_R34_NW REUNION_R50_NE REUNION_R50_SE REUNION_R50_SW REUNION_R50_NW REUNION_R64_NE REUNION_R64_SE REUNION_R64_SW REUNION_R64_NW BOM_LAT BOM_LON BOM_TYPE BOM_WIND BOM_PRES BOM_TNUM BOM_CI BOM_RMW BOM_R34_NE BOM_R34_SE BOM_R34_SW BOM_R34_NW BOM_R50_NE BOM_R50_SE BOM_R50_SW BOM_R50_NW BOM_R64_NE BOM_R64_SE BOM_R64_SW BOM_R64_NW BOM_ROCI BOM_POCI BOM_EYE BOM_POS_METHOD BOM_PRES_METHOD NADI_LAT NADI_LON NADI_CAT NADI_WIND NADI_PRES WELLINGTON_LAT WELLINGTON_LON WELLINGTON_WIND WELLINGTON_PRES DS824_LAT DS824_LON DS824_STAGE DS824_WIND DS824_PRES TD9636_LAT TD9636_LON TD9636_STAGE TD9636_WIND TD9636_PRES TD9635_LAT TD9635_LON TD9635_WIND TD9635_PRES TD9635_ROCI NEUMANN_LAT NEUMANN_LON NEUMANN_CLASS NEUMANN_WIND NEUMANN_PRES MLC_LAT MLC_LON MLC_CLASS MLC_WIND MLC_PRES USA_GUST BOM_GUST BOM_GUST_PER REUNION_GUST REUNION_GUST_PER USA_SEAHGT USA_SEARAD_NE USA_SEARAD_SE USA_SEARAD_SW USA_SEARAD_NW STORM_SPEED STORM_DIR
1962157N19088 1962 42 NI BB NOT_NAMED 1962-06-05 18:00:00 TS 18.6000 87.9000 main 222 214 O________O____ jtwc_io IO041962 18.6000 87.9000 -1 18.6000 87.9000 TC 1 10
1962157N19088 1962 42 NI BB NOT_NAMED 1962-06-05 21:00:00 TS 18.6675 87.9025 main 214 206 P________P____ IO041962 18.6675 87.9025 -1 18.6675 87.9025 TC 2 8
1962157N19088 1962 42 NI BB NOT_NAMED 1962-06-06 00:00:00 TS 18.8000 87.9000 main 206 192 O________O____ jtwc_io IO041962 18.8000 87.9000 -1 18.8000 87.9000 TC 25 4 357
1962157N19088 1962 42 NI BB NOT_NAMED 1962-06-06 03:00:00 TS 19.0422 87.8934 main 192 160 P________PO___ IO041962 19.0475 87.8926 -1 19.0475 87.8926 TC 25 19.0000 87.9000 1 6 0
1962157N19088 1962 42 NI BB NOT_NAMED 1962-06-06 06:00:00 TS 19.4081 87.9022 main 160 137 O________OP___ jtwc_io IO041962 19.4000 87.9000 -1 19.4000 87.9000 TC 25 19.4406 87.9110 1 8 3
1962157N19088 1962 42 NI BB NOT_NAMED 1962-06-06 09:00:00 TS 19.8596 87.9384 main 129 113 P________PP___ IO041962 19.8575 87.9424 -1 19.8575 87.9424 TC 25 19.8650 87.9276 1 9 5
1962157N19088 1962 42 NI BB NOT_NAMED 1962-06-06 12:00:00 TS 20.2856 87.9851 main 113 104 O________OP___ jtwc_io IO041962 20.3000 88.0000 -1 20.3000 88.0000 TC 25 20.2569 87.9554 1 7 7
1962157N19088 1962 42 NI BB NOT_NAMED 1962-06-06 15:00:00 TS 20.5867 88.0334 main 104 90 P________PO___ IO041962 20.5800 88.0500 -1 20.5800 88.0500 TC 25 20.6000 88.0000 1 6 10
1962157N19088 1962 42 NI BB NOT_NAMED 1962-06-06 18:00:00 TS 20.8278 88.0882 main 90 56 O________OP___ jtwc_io IO041962 20.8000 88.1000 -1 20.8000 88.1000 TC 25 20.8834 88.0646 1 5 12
1962157N19088 1962 42 NI BB NOT_NAMED 1962-06-06 21:00:00 TS 21.0775 88.1475 main 56 33 P________PP___ IO041962 21.0575 88.1500 -1 21.0575 88.1500 TC 25 21.1175 88.1424 1 5 13
1962157N19088 1962 42 NI BB NOT_NAMED 1962-06-07 00:00:00 TS 21.3059 88.2080 main 33 11 O________OP___ jtwc_io IO041962 21.3000 88.2000 -1 21.3000 88.2000 TC 25 21.3178 88.2240 1 4 14
1962157N19088 1962 42 NI BB NOT_NAMED 1962-06-07 03:00:00 TS 21.5100 88.2667 main 11 0 P________PO___ IO041962 21.5150 88.2500 -1 21.5150 88.2500 TC 25 21.5000 88.3000 1 4 15
1962157N19088 1962 42 NI BB NOT_NAMED 1962-06-07 06:00:00 TS 21.6951 88.3191 main 0 0 O________OP___ jtwc_io IO041962 21.7000 88.3000 -1 21.7000 88.3000 TC 25 21.6853 88.3573 1 4 16
1962157N19088 1962 42 NI BB NOT_NAMED 1962-06-07 09:00:00 TS 21.8525 88.3692 main 0 0 P________PP___ IO041962 21.8500 88.3500 -1 21.8500 88.3500 TC 25 21.8575 88.4077 1 3 16
1962157N19088 1962 42 NI BB NOT_NAMED 1962-06-07 12:00:00 TS 22.0086 88.4181 main 0 0 O________OP___ jtwc_io IO041962 22.0000 88.4000 -1 22.0000 88.4000 TC 25 22.0259 88.4542 1 4 15
1962157N19088 1962 42 NI BB NOT_NAMED 1962-06-07 15:00:00 TS 22.1950 88.4667 main 0 0 P________PO___ IO041962 22.1925 88.4500 -1 22.1925 88.4500 TC 25 22.2000 88.5000 1 4 14
1962157N19088 1962 42 NI BB NOT_NAMED 1962-06-07 18:00:00 TS 22.3948 88.5191 main 0 0 O________OP___ jtwc_io IO041962 22.4000 88.5000 -1 22.4000 88.5000 TC 25 22.3869 88.5477 1 4 13
1962157N19088 1962 42 NI BB NOT_NAMED 1962-06-07 21:00:00 TS 22.5950 88.5703 main 0 0 P________PP___ IO041962 22.6025 88.5500 -1 22.6025 88.5500 TC 25 22.5850 88.5973 1 4 14
1962157N19088 1962 42 NI BB NOT_NAMED 1962-06-08 00:00:00 TS 22.7953 88.6241 main 0 0 O________OP___ jtwc_io IO041962 22.8000 88.6000 -1 22.8000 88.6000 TC 25 22.7906 88.6483 1 4 17
1962157N19088 1962 42 NI BB NOT_NAMED 1962-06-08 03:00:00 NR 23.0000 88.7000 main 0 __________O___ IO041962 -1 TC 23.0000 88.7000 1 4 19

About IBTrACS Database

This database is a web-friendly format of International Best Track Archive for Climate Stewardship (IBTrACS), a global best track data archive curated by NOAA dating back to 1842.

Updated: 2021-12-03